Time;durP1;ratioP1;P1;durP2;ratioP2;P2;SDS_P1;SDS_P2;PMS_P1;PMS_P2;Temp;Humidity;BMP_temperature;BMP_pressure;BME280_temperature;BME280_humidity;BME280_pressure;Samples;Min_cycle;Max_cycle;Signal;HPM_P1;HPM_P2
2022/07/17 00:01:13;;;;;;;4.70;3.60;;;16.60;99.90;;;;;;4977260;28;20280;-33
2022/07/17 00:03:39;;;;;;;6.03;3.63;;;16.50;99.90;;;;;;4977591;28;20180;-35
2022/07/17 00:06:05;;;;;;;4.20;3.80;;;16.50;99.90;;;;;;4977150;28;20186;-35
2022/07/17 00:08:31;;;;;;;5.83;3.70;;;16.40;99.90;;;;;;4993496;28;20180;-36
2022/07/17 00:10:58;;;;;;;4.13;3.60;;;16.40;99.90;;;;;;4993118;28;20235;-36
2022/07/17 00:13:24;;;;;;;5.67;3.67;;;16.40;99.90;;;;;;4977181;28;20187;-34
2022/07/17 00:15:50;;;;;;;5.13;4.20;;;16.40;99.90;;;;;;4994466;28;20195;-35
2022/07/17 00:18:16;;;;;;;6.77;3.50;;;16.30;99.90;;;;;;4961774;28;20184;-36
2022/07/17 00:20:43;;;;;;;5.47;3.97;;;16.30;99.90;;;;;;4977046;28;20264;-35
2022/07/17 00:23:10;;;;;;;4.90;3.10;;;16.20;99.90;;;;;;4960902;28;20183;-35
2022/07/17 00:25:36;;;;;;;4.53;3.30;;;16.20;99.90;;;;;;4960337;28;20180;-35
2022/07/17 00:28:03;;;;;;;4.33;3.57;;;16.10;99.90;;;;;;4961227;28;20570;-34
2022/07/17 00:30:29;;;;;;;5.67;3.77;;;16.00;99.90;;;;;;4976694;28;20345;-36
2022/07/17 00:32:55;;;;;;;8.00;4.90;;;16.00;99.90;;;;;;4959993;28;20724;-34
2022/07/17 00:35:22;;;;;;;8.27;5.50;;;15.90;99.90;;;;;;4993535;28;20275;-38
2022/07/17 00:37:49;;;;;;;7.53;4.60;;;15.90;99.90;;;;;;4976317;28;20267;-36
2022/07/17 00:40:19;;;;;;;11.40;5.93;;;15.90;99.90;;;;;;4976224;28;20204;-35
2022/07/17 00:42:45;;;;;;;5.83;4.57;;;15.90;99.90;;;;;;4976481;28;20772;-36
2022/07/17 00:45:12;;;;;;;6.17;4.40;;;16.00;99.90;;;;;;4976094;28;20275;-36
2022/07/17 00:47:59;;;;;;;3.90;3.60;;;16.00;99.90;;;;;;4960658;28;20275;-36
2022/07/17 00:50:32;;;;;;;6.50;3.70;;;15.90;99.90;;;;;;4960059;28;20241;-35
2022/07/17 00:52:58;;;;;;;4.33;3.67;;;15.90;99.90;;;;;;4993941;28;20176;-34
2022/07/17 00:55:24;;;;;;;8.87;4.10;;;15.80;99.90;;;;;;4958924;28;20218;-34
2022/07/17 00:57:51;;;;;;;7.23;3.73;;;15.70;99.90;;;;;;4941344;28;20188;-34
2022/07/17 01:00:18;;;;;;;5.33;4.10;;;15.60;99.90;;;;;;4978814;28;20229;-35
2022/07/17 01:02:48;;;;;;;5.33;3.80;;;15.50;99.90;;;;;;4976659;28;20192;-36
2022/07/17 01:05:15;;;;;;;6.10;3.67;;;15.50;99.90;;;;;;4959302;28;20179;-35
2022/07/17 01:07:41;;;;;;;6.70;4.00;;;15.40;99.90;;;;;;4976111;28;20271;-35
2022/07/17 01:10:08;;;;;;;5.77;4.03;;;15.40;99.90;;;;;;4974909;28;20310;-35
2022/07/17 01:12:34;;;;;;;8.47;4.33;;;15.40;99.90;;;;;;4960297;28;20184;-36
2022/07/17 01:15:01;;;;;;;6.60;4.40;;;15.30;99.90;;;;;;4975431;28;20612;-35
2022/07/17 01:17:27;;;;;;;6.43;4.47;;;15.40;99.90;;;;;;4959676;28;20633;-35
2022/07/17 01:19:53;;;;;;;5.43;3.63;;;15.30;99.90;;;;;;4958949;28;20231;-35
2022/07/17 01:22:19;;;;;;;6.00;4.30;;;15.30;99.90;;;;;;4993429;28;20175;-35
2022/07/17 01:24:45;;;;;;;5.20;4.50;;;15.30;99.90;;;;;;4975296;28;20715;-34
2022/07/17 01:27:11;;;;;;;5.13;4.40;;;15.20;99.90;;;;;;4960032;28;20185;-36
2022/07/17 01:29:38;;;;;;;6.10;4.33;;;15.10;99.90;;;;;;4975235;28;20187;-36
2022/07/17 01:32:05;;;;;;;6.97;4.60;;;15.10;99.90;;;;;;4959999;28;20180;-34
2022/07/17 01:34:31;;;;;;;4.57;3.93;;;15.10;99.90;;;;;;4975425;28;20212;-34
2022/07/17 01:36:57;;;;;;;6.73;4.07;;;15.10;99.90;;;;;;4975448;28;20684;-34
2022/07/17 01:39:52;;;;;;;5.17;3.83;;;15.00;99.90;;;;;;4991755;28;20176;-34
2022/07/17 01:42:09;;;;;;;7.13;3.90;;;14.90;99.90;;;;;;4975712;28;20192;-37
2022/07/17 01:44:35;;;;;;;5.00;4.10;;;14.90;99.90;;;;;;4975224;28;20275;-34
2022/07/17 01:47:01;;;;;;;4.60;3.70;;;14.70;99.90;;;;;;4959565;28;20211;-35
2022/07/17 01:49:27;;;;;;;6.27;3.70;;;14.70;99.90;;;;;;4958402;28;20187;-34
2022/07/17 01:51:52;;;;;;;6.33;4.10;;;14.60;99.90;;;;;;4959122;28;20550;-34
2022/07/17 01:54:18;;;;;;;5.53;4.20;;;14.60;99.90;;;;;;4959052;28;20198;-34
2022/07/17 01:56:44;;;;;;;6.30;3.73;;;14.60;99.90;;;;;;4959481;28;20220;-36
2022/07/17 01:59:10;;;;;;;5.20;3.90;;;14.50;99.90;;;;;;4959011;28;20191;-35
2022/07/17 02:01:37;;;;;;;4.73;4.00;;;14.50;99.90;;;;;;4959122;28;20204;-34
2022/07/17 02:04:03;;;;;;;6.37;4.50;;;14.50;99.90;;;;;;4974706;28;20187;-36
2022/07/17 02:06:29;;;;;;;4.20;3.80;;;14.50;99.90;;;;;;4959282;28;20195;-34
2022/07/17 02:08:55;;;;;;;6.43;4.90;;;14.50;99.90;;;;;;4991012;28;20180;-34
2022/07/17 02:11:20;;;;;;;4.93;4.40;;;14.50;99.90;;;;;;4975271;28;20206;-34
2022/07/17 02:13:46;;;;;;;5.33;4.53;;;14.50;99.90;;;;;;4974821;28;20186;-35
2022/07/17 02:16:12;;;;;;;4.83;4.13;;;14.50;99.90;;;;;;4974746;28;20215;-36
2022/07/17 02:18:38;;;;;;;4.47;3.83;;;14.40;99.90;;;;;;4958389;28;20172;-37
2022/07/17 02:21:04;;;;;;;5.23;4.23;;;14.40;99.90;;;;;;4974887;28;20304;-34
2022/07/17 02:23:30;;;;;;;6.23;4.23;;;14.40;99.90;;;;;;4974747;28;20219;-34
2022/07/17 02:25:55;;;;;;;6.23;4.20;;;14.40;99.90;;;;;;4992506;28;20261;-34
2022/07/17 02:28:21;;;;;;;6.37;4.33;;;14.30;99.90;;;;;;4975584;28;20186;-34
2022/07/17 02:30:47;;;;;;;4.73;4.00;;;14.30;99.90;;;;;;4959418;28;20211;-35
2022/07/17 02:33:13;;;;;;;8.03;4.40;;;14.30;99.90;;;;;;4975350;28;20198;-36
2022/07/17 02:35:39;;;;;;;8.70;6.17;;;14.30;99.90;;;;;;4975503;28;20251;-35
2022/07/17 02:38:05;;;;;;;7.70;5.83;;;14.30;99.90;;;;;;4964977;28;20214;-34
2022/07/17 02:40:31;;;;;;;7.27;5.63;;;14.30;99.90;;;;;;4957380;28;20210;-34
2022/07/17 02:42:57;;;;;;;5.73;4.57;;;14.40;99.90;;;;;;4975500;28;20193;-35
2022/07/17 02:45:26;;;;;;;6.73;4.30;;;14.40;99.90;;;;;;4975119;28;20198;-35
2022/07/17 02:47:53;;;;;;;5.53;4.33;;;14.30;99.90;;;;;;4959610;28;20179;-33
2022/07/17 02:50:19;;;;;;;5.47;4.40;;;14.20;99.90;;;;;;4974565;28;20210;-36
2022/07/17 02:52:45;;;;;;;4.77;3.83;;;14.20;99.90;;;;;;4958432;28;20191;-36
2022/07/17 02:55:11;;;;;;;6.43;4.00;;;14.10;99.90;;;;;;4973827;28;20212;-35
2022/07/17 02:57:38;;;;;;;6.60;4.13;;;14.00;99.90;;;;;;4974401;28;20187;-36
2022/07/17 03:00:06;;;;;;;6.10;4.20;;;14.10;99.90;;;;;;4973655;28;20235;-33
2022/07/17 03:02:32;;;;;;;5.37;4.30;;;14.10;99.90;;;;;;4991720;28;20183;-35
2022/07/17 03:04:58;;;;;;;7.03;4.20;;;14.10;99.90;;;;;;4973916;28;20178;-35
2022/07/17 03:07:24;;;;;;;4.10;3.70;;;14.10;99.90;;;;;;4974426;28;20181;-35
2022/07/17 03:09:50;;;;;;;5.80;3.90;;;14.20;99.90;;;;;;4957867;28;20250;-34
2022/07/17 03:12:16;;;;;;;4.93;3.90;;;14.20;99.90;;;;;;4974392;28;20179;-36
2022/07/17 03:14:42;;;;;;;4.30;3.70;;;14.20;99.90;;;;;;4957866;28;20177;-35
2022/07/17 03:17:08;;;;;;;4.83;3.70;;;14.10;99.90;;;;;;4957485;28;20264;-35
2022/07/17 03:19:35;;;;;;;5.73;4.07;;;14.00;99.90;;;;;;4957609;28;20189;-35
2022/07/17 03:22:02;;;;;;;7.70;3.90;;;13.90;99.90;;;;;;4973957;28;20210;-34
2022/07/17 03:24:27;;;;;;;7.23;4.13;;;13.80;99.90;;;;;;4957995;28;20179;-35
2022/07/17 03:26:53;;;;;;;5.33;4.13;;;13.80;99.90;;;;;;4957679;28;20178;-35
2022/07/17 03:29:19;;;;;;;6.10;4.30;;;13.70;99.90;;;;;;4957813;28;20190;-36
2022/07/17 03:31:48;;;;;;;5.93;4.33;;;13.60;99.90;;;;;;4973674;28;20241;-35
2022/07/17 03:34:14;;;;;;;5.17;4.00;;;13.60;99.90;;;;;;4976174;28;20245;-35
2022/07/17 03:36:40;;;;;;;5.87;4.10;;;13.50;99.90;;;;;;4958242;28;20294;-35
2022/07/17 03:39:06;;;;;;;6.17;4.07;;;13.50;99.90;;;;;;4971910;28;20272;-35
2022/07/17 03:41:32;;;;;;;6.20;4.07;;;13.50;99.90;;;;;;4961583;28;20223;-34
2022/07/17 03:43:58;;;;;;;5.47;4.30;;;13.50;99.90;;;;;;4977322;28;20186;-34
2022/07/17 03:46:24;;;;;;;4.57;4.07;;;13.50;99.90;;;;;;4961462;28;20184;-34
2022/07/17 03:48:50;;;;;;;4.77;3.93;;;13.50;99.90;;;;;;4977277;28;20237;-34
2022/07/17 03:51:16;;;;;;;4.30;3.90;;;13.50;99.90;;;;;;4977748;28;20713;-34
2022/07/17 03:53:41;;;;;;;5.63;3.93;;;13.50;99.90;;;;;;4995152;28;20177;-35
2022/07/17 03:56:07;;;;;;;5.00;4.10;;;13.50;99.90;;;;;;4977380;28;20225;-35
2022/07/17 03:58:34;;;;;;;4.30;3.90;;;13.50;99.90;;;;;;4977107;28;20205;-35
2022/07/17 04:01:00;;;;;;;5.47;4.03;;;13.50;99.90;;;;;;4976472;28;20207;-35
2022/07/17 04:03:26;;;;;;;4.00;3.60;;;13.40;99.90;;;;;;4961270;28;20218;-36
2022/07/17 04:05:52;;;;;;;6.77;4.50;;;13.40;99.90;;;;;;4977441;28;20189;-35
2022/07/17 04:08:18;;;;;;;5.47;3.87;;;13.40;99.90;;;;;;4994384;28;20194;-37
2022/07/17 04:10:45;;;;;;;5.27;4.10;;;13.30;99.90;;;;;;4960952;28;20210;-35
2022/07/17 04:13:11;;;;;;;4.63;4.10;;;13.30;99.90;;;;;;4960578;28;20212;-35
2022/07/17 04:15:49;;;;;;;6.73;4.30;;;13.30;99.90;;;;;;4960576;28;20221;-34
2022/07/17 04:18:15;;;;;;;5.57;4.60;;;13.30;99.90;;;;;;4994403;28;20178;-34
2022/07/17 04:20:41;;;;;;;4.40;4.00;;;13.30;99.90;;;;;;4960807;28;20206;-34
2022/07/17 04:23:07;;;;;;;7.20;4.10;;;13.30;99.90;;;;;;4976810;28;20239;-35
2022/07/17 04:25:33;;;;;;;5.70;3.63;;;13.30;99.90;;;;;;4976621;28;20189;-34
2022/07/17 04:27:59;;;;;;;4.60;4.07;;;13.40;99.90;;;;;;4960350;28;20190;-34
2022/07/17 04:30:25;;;;;;;6.17;4.53;;;13.50;99.90;;;;;;4976838;28;20257;-34
2022/07/17 04:32:50;;;;;;;4.53;4.10;;;13.50;99.90;;;;;;4976517;28;20206;-35
2022/07/17 04:35:16;;;;;;;8.30;4.50;;;13.60;99.90;;;;;;4960556;28;20210;-35
2022/07/17 04:37:42;;;;;;;4.73;4.33;;;13.60;99.90;;;;;;4976326;28;20191;-34
2022/07/17 04:40:10;;;;;;;5.20;4.60;;;13.70;99.90;;;;;;4976446;28;20233;-34
2022/07/17 04:42:36;;;;;;;4.30;3.93;;;13.70;99.90;;;;;;4960443;28;20587;-35
2022/07/17 04:45:02;;;;;;;4.97;4.33;;;13.70;99.90;;;;;;4975821;28;20182;-33
2022/07/17 04:47:28;;;;;;;6.13;4.60;;;13.80;99.90;;;;;;4976822;28;20260;-35
2022/07/17 04:49:54;;;;;;;4.40;4.03;;;13.90;99.90;;;;;;4975978;28;20297;-34
2022/07/17 04:52:20;;;;;;;5.00;4.20;;;13.90;99.90;;;;;;4960119;28;20190;-34
2022/07/17 04:54:46;;;;;;;4.53;4.13;;;13.90;99.90;;;;;;4976069;28;20187;-34
2022/07/17 04:57:11;;;;;;;8.07;4.63;;;13.90;99.90;;;;;;4959770;28;20319;-34
2022/07/17 04:59:37;;;;;;;4.83;4.33;;;14.00;99.90;;;;;;4993703;28;20189;-36
2022/07/17 05:02:04;;;;;;;4.70;4.30;;;14.00;99.90;;;;;;4960322;28;20174;-35
2022/07/17 05:04:29;;;;;;;7.30;4.73;;;14.10;99.90;;;;;;4959562;28;20183;-35
2022/07/17 05:06:55;;;;;;;5.13;4.20;;;14.10;99.90;;;;;;4976138;28;20540;-36
2022/07/17 05:09:22;;;;;;;5.03;4.43;;;14.10;99.90;;;;;;4993861;28;20641;-34
2022/07/17 05:11:47;;;;;;;5.30;4.40;;;14.00;99.90;;;;;;4975774;28;20211;-34
2022/07/17 05:14:13;;;;;;;5.13;4.40;;;14.10;99.90;;;;;;4961381;28;20187;-35
2022/07/17 05:16:40;;;;;;;5.27;4.30;;;14.20;99.90;;;;;;4994143;28;20270;-35
2022/07/17 05:19:06;;;;;;;5.57;4.57;;;14.30;99.90;;;;;;4975927;28;20182;-35
2022/07/17 05:21:31;;;;;;;5.37;4.37;;;14.30;99.90;;;;;;4959857;28;20218;-37
2022/07/17 05:23:57;;;;;;;5.33;4.70;;;14.40;99.90;;;;;;4975622;28;20181;-35
2022/07/17 05:26:24;;;;;;;6.43;4.80;;;14.40;99.90;;;;;;4959739;28;20193;-37
2022/07/17 05:28:50;;;;;;;7.20;4.90;;;14.50;99.90;;;;;;4992975;28;20190;-35
2022/07/17 05:31:16;;;;;;;6.70;5.00;;;14.60;99.90;;;;;;4975731;28;20207;-37
2022/07/17 05:33:42;;;;;;;7.63;4.87;;;14.70;99.90;;;;;;4975562;28;20252;-36
2022/07/17 05:36:08;;;;;;;5.33;4.70;;;14.80;99.90;;;;;;4992934;28;20254;-35
2022/07/17 05:38:34;;;;;;;4.87;4.43;;;14.80;99.90;;;;;;4975218;28;20176;-35
2022/07/17 05:41:00;;;;;;;7.50;4.53;;;15.00;99.90;;;;;;4970715;23;2495312;-91
2022/07/17 05:43:26;;;;;;;6.20;4.87;;;15.10;99.90;;;;;;4994317;28;20182;-91
2022/07/17 05:45:57;;;;;;;5.00;4.37;;;15.20;99.90;;;;;;4994528;28;20205;-90
2022/07/17 05:48:23;;;;;;;5.27;4.77;;;15.40;99.90;;;;;;4979225;28;20182;-91
2022/07/17 05:50:49;;;;;;;5.93;4.80;;;15.50;99.90;;;;;;5011474;28;20370;-90
2022/07/17 05:53:15;;;;;;;8.00;4.50;;;15.70;99.90;;;;;;4994673;28;20281;-91
2022/07/17 05:55:41;;;;;;;4.63;4.10;;;15.80;99.90;;;;;;4977991;28;20215;-90
2022/07/17 05:58:07;;;;;;;4.63;4.23;;;15.90;99.90;;;;;;4978099;28;20186;-90
2022/07/17 06:00:33;;;;;;;4.73;4.27;;;16.00;99.90;;;;;;4978485;28;20187;-90
2022/07/17 06:02:59;;;;;;;5.00;4.50;;;16.20;99.90;;;;;;4995308;28;20239;-90
2022/07/17 06:05:28;;;;;;;4.80;4.30;;;16.30;99.90;;;;;;4994560;28;20249;-91
2022/07/17 06:07:54;;;;;;;4.90;4.30;;;16.40;99.90;;;;;;4978256;28;20178;-90
2022/07/17 06:10:20;;;;;;;5.50;4.13;;;16.50;99.90;;;;;;4979197;28;20190;-90
2022/07/17 06:12:46;;;;;;;4.80;4.00;;;16.60;99.90;;;;;;4978239;28;20180;-90
2022/07/17 06:15:12;;;;;;;5.13;4.67;;;16.80;99.90;;;;;;4978327;28;20194;-91
2022/07/17 06:17:38;;;;;;;4.73;4.30;;;16.90;99.90;;;;;;4978159;28;20228;-91
2022/07/17 06:20:05;;;;;;;5.90;4.07;;;17.10;99.90;;;;;;4994720;28;20178;-90
2022/07/17 06:22:31;;;;;;;4.50;4.10;;;17.30;99.90;;;;;;4977654;28;20202;-90
2022/07/17 06:24:57;;;;;;;4.40;4.00;;;17.50;99.90;;;;;;4994051;28;20186;-91
2022/07/17 06:27:23;;;;;;;5.00;4.30;;;17.70;99.90;;;;;;4994090;28;20187;-91
2022/07/17 06:29:50;;;;;;;4.47;4.07;;;17.80;99.90;;;;;;4978119;28;20190;-91
2022/07/17 06:32:16;;;;;;;4.60;4.10;;;18.00;99.90;;;;;;4977903;28;20206;-90
2022/07/17 06:34:42;;;;;;;6.63;4.50;;;18.20;99.90;;;;;;4977770;28;20179;-90
2022/07/17 06:37:08;;;;;;;4.63;4.13;;;18.20;99.90;;;;;;4976947;28;20303;-90
2022/07/17 06:39:34;;;;;;;4.57;4.10;;;18.50;99.90;;;;;;4978047;28;20177;-91
2022/07/17 06:42:00;;;;;;;5.07;4.57;;;18.70;99.90;;;;;;4977554;28;20216;-90
2022/07/17 06:44:26;;;;;;;6.68;4.28;;;19.00;99.90;;;;;;4994295;28;20263;-91
2022/07/17 06:46:52;;;;;;;4.68;4.10;;;19.20;99.90;;;;;;4977631;28;20175;-90
2022/07/17 06:49:18;;;;;;;5.60;4.20;;;19.40;99.90;;;;;;4977938;28;20243;-91
2022/07/17 06:51:45;;;;;;;4.93;4.43;;;19.60;99.90;;;;;;4977231;28;20206;-91
2022/07/17 06:54:12;;;;;;;4.95;3.95;;;19.70;99.90;;;;;;4977789;28;20538;-91
2022/07/17 06:56:39;;;;;;;5.88;3.90;;;19.90;99.90;;;;;;4978080;28;20214;-91
2022/07/17 06:59:07;;;;;;;4.55;4.10;;;20.10;99.90;;;;;;4977373;28;20195;-91
2022/07/17 07:01:36;;;;;;;4.43;3.97;;;20.20;99.90;;;;;;4976577;28;20196;-91
2022/07/17 07:04:04;;;;;;;5.72;3.88;;;20.40;99.90;;;;;;4978331;28;20167;-91
2022/07/17 07:06:30;;;;;;;5.47;3.85;;;20.40;99.90;;;;;;4977798;28;20226;-91
2022/07/17 07:08:57;;;;;;;4.15;3.60;;;20.50;99.90;;;;;;4993249;28;20188;-91
2022/07/17 07:11:23;;;;;;;4.60;4.07;;;20.70;99.90;;;;;;4994220;28;20277;-91
2022/07/17 07:13:50;;;;;;;5.20;3.60;;;20.90;99.90;;;;;;4977859;28;20179;-91
2022/07/17 07:16:16;;;;;;;5.28;4.10;;;21.00;99.90;;;;;;4995703;28;20219;-91
2022/07/17 07:18:42;;;;;;;7.30;4.05;;;21.20;99.90;;;;;;4977516;28;20214;-92
2022/07/17 07:21:08;;;;;;;3.55;3.25;;;21.30;99.90;;;;;;4981397;28;20203;-91
2022/07/17 07:23:34;;;;;;;3.72;3.42;;;21.40;99.90;;;;;;4981590;28;20180;-91
2022/07/17 07:26:00;;;;;;;3.53;3.05;;;21.40;99.90;;;;;;4979484;28;20182;-91
2022/07/17 07:28:26;;;;;;;3.70;3.17;;;21.60;99.90;;;;;;4995261;28;20171;-91
2022/07/17 07:30:52;;;;;;;3.50;3.20;;;21.70;99.90;;;;;;4995778;28;20230;-92
2022/07/17 07:33:18;;;;;;;4.35;3.42;;;22.00;99.90;;;;;;4995445;28;20277;-91
2022/07/17 07:35:49;;;;;;;3.70;3.40;;;22.10;99.90;;;;;;4994558;28;20585;-91
2022/07/17 07:38:15;;;;;;;3.90;3.50;;;22.20;99.90;;;;;;4995653;28;20258;-91
2022/07/17 07:40:42;;;;;;;3.50;3.22;;;22.20;99.90;;;;;;4995433;28;20663;-91
2022/07/17 07:43:08;;;;;;;4.85;3.53;;;22.30;99.90;;;;;;4995580;28;20180;-91
2022/07/17 07:45:35;;;;;;;8.18;3.50;;;22.40;99.90;;;;;;4994205;28;20201;-91
2022/07/17 07:48:01;;;;;;;3.67;3.20;;;22.60;99.90;;;;;;4978513;28;20202;-91
2022/07/17 07:50:28;;;;;;;3.60;3.20;;;22.60;99.90;;;;;;4995546;28;20222;-92
2022/07/17 07:52:57;;;;;;;3.22;2.92;;;22.80;99.90;;;;;;4995749;28;20187;-90
2022/07/17 07:55:33;;;;;;;8.25;3.40;;;22.90;99.90;;;;;;4998798;28;20224;-91
2022/07/17 07:58:25;;;;;;;3.13;2.85;;;23.00;99.20;;;;;;4996855;28;20195;-92
2022/07/17 08:00:51;;;;;;;3.47;2.70;;;23.10;99.60;;;;;;4980381;28;20199;-91
2022/07/17 08:03:18;;;;;;;3.00;2.80;;;23.30;99.20;;;;;;4996091;28;20230;-92
2022/07/17 08:05:46;;;;;;;4.43;2.53;;;23.50;98.80;;;;;;4997634;28;20279;-91
2022/07/17 08:08:12;;;;;;;3.42;2.85;;;23.60;98.10;;;;;;4990124;28;20182;-91
2022/07/17 08:10:38;;;;;;;3.05;2.78;;;23.80;98.60;;;;;;5000929;28;20215;-92
2022/07/17 08:13:04;;;;;;;4.15;2.80;;;23.90;97.80;;;;;;4989059;28;20176;-92
2022/07/17 08:15:40;;;;;;;3.25;2.95;;;24.00;98.90;;;;;;4991750;28;20210;-91
2022/07/17 08:18:12;;;;;;;2.55;2.35;;;24.00;97.80;;;;;;4995349;28;20266;-92
2022/07/17 08:20:38;;;;;;;3.08;2.75;;;24.20;97.20;;;;;;4998596;28;20195;-92
2022/07/17 08:23:04;;;;;;;4.90;2.88;;;24.40;96.60;;;;;;4999627;28;20191;-92
2022/07/17 08:25:31;;;;;;;3.47;3.20;;;24.50;96.60;;;;;;4999136;28;20183;-91
2022/07/17 08:27:57;;;;;;;3.85;3.55;;;24.70;97.30;;;;;;4994937;28;20184;-92
2022/07/17 08:30:23;;;;;;;5.30;2.97;;;24.60;97.70;;;;;;4964038;28;20231;-91
2022/07/17 08:32:49;;;;;;;3.75;3.13;;;24.70;97.80;;;;;;4974245;28;20646;-92
2022/07/17 08:35:15;;;;;;;2.95;2.65;;;24.70;97.20;;;;;;4982832;28;20179;-92
2022/07/17 08:37:50;;;;;;;2.75;2.38;;;25.00;97.10;;;;;;4982762;28;20179;-92
2022/07/17 08:40:27;;;;;;;3.30;3.00;;;25.20;96.10;;;;;;4998063;28;20178;-92
2022/07/17 08:42:55;;;;;;;4.57;2.55;;;25.40;95.50;;;;;;4982740;28;20197;-92
2022/07/17 08:45:22;;;;;;;3.17;2.70;;;25.50;94.00;;;;;;4981271;28;20270;-91
2022/07/17 08:47:57;;;;;;;2.65;2.33;;;25.70;94.70;;;;;;4982275;28;20183;-91
2022/07/17 08:50:26;;;;;;;4.75;2.70;;;25.80;94.50;;;;;;4981960;28;20202;-91
2022/07/17 08:52:53;;;;;;;2.60;2.40;;;25.90;95.00;;;;;;4981817;28;20179;-91
2022/07/17 08:55:20;;;;;;;3.03;2.60;;;26.10;94.10;;;;;;4998028;28;20207;-91
2022/07/17 08:58:38;;;;;;;2.67;2.47;;;26.30;94.40;;;;;;4981848;28;20267;-92
2022/07/17 09:01:04;;;;;;;2.70;2.50;;;26.50;94.00;;;;;;4998156;28;20191;-92
2022/07/17 09:03:30;;;;;;;2.85;2.65;;;26.80;93.10;;;;;;4998560;28;20183;-91
2022/07/17 09:06:00;;;;;;;2.90;2.50;;;26.90;92.30;;;;;;4979954;28;20186;-91
2022/07/17 09:08:29;;;;;;;3.05;2.65;;;27.00;91.80;;;;;;4994676;28;20179;-91
2022/07/17 09:10:55;;;;;;;3.38;2.25;;;27.20;92.40;;;;;;4994945;28;20209;-91
2022/07/17 09:13:28;;;;;;;5.03;2.50;;;27.40;91.80;;;;;;4976451;28;20618;-91
2022/07/17 09:16:17;;;;;;;3.72;2.40;;;27.40;90.80;;;;;;4977904;28;20302;-92
2022/07/17 09:18:49;;;;;;;3.50;2.47;;;27.50;90.60;;;;;;4995450;28;20686;-91
2022/07/17 09:21:27;;;;;;;2.47;2.20;;;27.50;90.50;;;;;;4979442;28;20235;-92
2022/07/17 09:24:03;;;;;;;3.28;2.30;;;27.50;90.80;;;;;;4995861;28;20214;-91
2022/07/17 09:26:30;;;;;;;2.85;2.13;;;27.60;90.00;;;;;;4998275;28;20286;-91
2022/07/17 09:28:56;;;;;;;2.65;2.20;;;27.70;89.90;;;;;;4997954;28;20179;-91
2022/07/17 09:31:30;;;;;;;4.43;2.22;;;27.80;90.70;;;;;;4980755;28;20211;-80
2022/07/17 09:34:15;;;;;;;2.67;2.40;;;28.00;90.30;;;;;;4982032;28;20174;-91
2022/07/17 09:37:11;;;;;;;2.50;2.30;;;28.20;89.00;;;;;;4995587;28;20203;-92
2022/07/17 09:39:39;;;;;;;2.80;2.17;;;28.30;88.10;;;;;;4995029;28;20194;-91
2022/07/17 09:42:10;;;;;;;2.60;2.40;;;28.10;87.60;;;;;;4980640;28;20222;-92
2022/07/17 09:44:36;;;;;;;2.80;2.15;;;27.50;86.20;;;;;;4995355;28;20175;-91
2022/07/17 09:47:02;;;;;;;3.67;2.30;;;27.60;87.80;;;;;;4997339;28;20238;-91
2022/07/17 09:49:28;;;;;;;2.53;2.22;;;27.60;87.50;;;;;;5003396;28;20179;-91
2022/07/17 09:51:55;;;;;;;3.05;2.28;;;27.80;86.10;;;;;;4996815;28;20211;-91
2022/07/17 09:54:23;;;;;;;2.35;2.13;;;28.10;87.00;;;;;;5000655;28;20191;-91
2022/07/17 09:56:59;;;;;;;2.17;1.98;;;28.10;85.50;;;;;;4974176;28;20199;-91
2022/07/17 09:59:31;;;;;;;2.42;2.20;;;28.30;85.80;;;;;;4978733;28;20202;-92
2022/07/17 10:01:59;;;;;;;2.28;1.80;;;28.60;83.40;;;;;;5003758;28;20278;-91
2022/07/17 10:04:28;;;;;;;1.90;1.80;;;28.70;81.80;;;;;;4981313;28;20208;-92
2022/07/17 10:06:55;;;;;;;4.13;2.38;;;28.80;80.70;;;;;;4995333;28;20202;-92
2022/07/17 10:09:22;;;;;;;2.00;1.90;;;29.00;81.50;;;;;;5004747;28;20241;-91
2022/07/17 10:11:50;;;;;;;2.75;2.30;;;28.90;80.90;;;;;;4978915;28;20294;-91
2022/07/17 10:14:18;;;;;;;1.70;1.60;;;28.80;80.30;;;;;;5004387;28;20175;-91
2022/07/17 10:16:45;;;;;;;1.92;1.83;;;28.70;82.00;;;;;;4976579;28;20591;-91
2022/07/17 10:19:17;;;;;;;1.83;1.73;;;28.90;80.90;;;;;;4980327;28;20178;-91
2022/07/17 10:22:07;;;;;;;2.60;2.00;;;29.10;80.40;;;;;;4980133;28;20196;-92
2022/07/17 10:24:50;;;;;;;2.05;1.95;;;29.20;79.60;;;;;;4995946;28;20207;-92
2022/07/17 10:27:29;;;;;;;1.98;1.63;;;29.50;76.40;;;;;;4991133;28;20183;-91
2022/07/17 10:30:11;;;;;;;2.22;1.88;;;29.60;77.40;;;;;;4981351;28;20175;-91
2022/07/17 10:32:38;;;;;;;2.08;1.88;;;29.80;77.30;;;;;;4980961;28;20199;-91
2022/07/17 10:35:52;;;;;;;2.88;2.08;;;29.90;72.90;;;;;;4979994;28;20249;-92
2022/07/17 10:38:18;;;;;;;1.70;1.60;;;29.80;73.30;;;;;;4979817;28;20175;-91
2022/07/17 10:40:44;;;;;;;2.00;1.80;;;29.80;73.20;;;;;;4992973;28;20191;-92
2022/07/17 10:43:17;;;;;;;2.20;1.60;;;29.90;71.80;;;;;;4995070;28;20198;-91
2022/07/17 10:45:45;;;;;;;3.00;1.90;;;29.60;70.10;;;;;;4979398;28;20230;-92
2022/07/17 10:48:14;;;;;;;1.85;1.70;;;29.60;70.40;;;;;;4976866;28;20180;-92
2022/07/17 10:50:46;;;;;;;1.70;1.60;;;29.70;69.10;;;;;;4996156;28;20230;-92
2022/07/17 10:53:16;;;;;;;2.05;1.58;;;29.60;68.10;;;;;;5019338;28;20187;-92
2022/07/17 10:55:46;;;;;;;2.60;1.60;;;29.90;70.30;;;;;;4995798;28;20191;-92
2022/07/17 10:58:53;;;;;;;2.47;1.50;;;30.00;67.30;;;;;;4996558;28;20175;-92
2022/07/17 11:01:29;;;;;;;1.88;1.60;;;30.30;65.00;;;;;;4996202;28;20210;-92
2022/07/17 11:03:58;;;;;;;1.95;1.85;;;30.20;65.60;;;;;;4995897;28;20175;-92
2022/07/17 11:06:30;;;;;;;2.88;1.90;;;30.40;64.80;;;;;;4980458;28;20176;-92
2022/07/17 11:09:05;;;;;;;2.20;1.70;;;30.60;66.10;;;;;;4980817;28;20215;-92
2022/07/17 11:11:51;;;;;;;1.70;1.60;;;30.40;71.50;;;;;;4973241;28;20287;-92
2022/07/17 11:14:22;;;;;;;2.10;1.90;;;30.60;69.10;;;;;;4993096;28;20632;-91
2022/07/17 11:16:53;;;;;;;1.88;1.77;;;30.60;66.30;;;;;;4978066;28;20202;-92
2022/07/17 11:19:25;;;;;;;2.45;1.60;;;30.70;67.40;;;;;;4978312;28;20171;-92
2022/07/17 11:21:52;;;;;;;1.63;1.52;;;31.00;64.90;;;;;;4994595;28;20289;-92
2022/07/17 11:24:18;;;;;;;1.83;1.40;;;31.10;64.10;;;;;;4978302;28;20182;-92
2022/07/17 11:26:44;;;;;;;1.60;1.50;;;31.00;59.40;;;;;;4994352;28;20251;-91
2022/07/17 11:29:11;;;;;;;1.60;1.50;;;31.00;58.50;;;;;;4970281;28;20179;-92
2022/07/17 11:31:37;;;;;;;3.35;1.50;;;31.30;60.80;;;;;;4994930;28;20222;-92
2022/07/17 11:34:08;;;;;;;1.60;1.50;;;31.40;61.60;;;;;;4995592;28;20179;-92
2022/07/17 11:36:41;;;;;;;1.88;1.60;;;31.00;61.80;;;;;;4995680;28;20211;-92
2022/07/17 11:39:11;;;;;;;2.20;1.45;;;31.20;62.10;;;;;;5012007;28;20239;-92
2022/07/17 11:41:42;;;;;;;1.40;1.30;;;31.50;61.00;;;;;;5006801;28;20263;-92
2022/07/17 11:44:11;;;;;;;2.05;1.20;;;31.60;59.10;;;;;;5032651;28;20178;-92
2022/07/17 11:46:39;;;;;;;1.50;1.40;;;31.60;58.70;;;;;;4992601;28;20183;-92
2022/07/17 11:49:06;;;;;;;2.50;1.25;;;31.50;58.90;;;;;;4991076;28;20195;-91
2022/07/17 11:51:55;;;;;;;2.22;1.40;;;31.20;58.90;;;;;;4974772;28;20196;-93
2022/07/17 11:54:21;;;;;;;1.33;1.23;;;31.40;60.40;;;;;;4985464;28;20176;-92
2022/07/17 11:56:58;;;;;;;1.77;1.30;;;31.60;59.50;;;;;;4976397;28;20219;-92
2022/07/17 11:59:30;;;;;;;1.70;1.60;;;31.50;60.30;;;;;;4995107;28;20179;-92
2022/07/17 12:01:56;;;;;;;2.67;1.30;;;31.50;61.90;;;;;;4995673;28;20191;-92
2022/07/17 12:04:22;;;;;;;1.52;1.40;;;31.40;57.80;;;;;;4996704;28;20179;-92
2022/07/17 12:07:03;;;;;;;1.77;1.20;;;31.60;58.00;;;;;;4980944;28;20187;-92
2022/07/17 12:09:36;;;;;;;2.30;1.17;;;31.70;57.80;;;;;;4996577;28;20187;-92
2022/07/17 12:12:02;;;;;;;1.42;1.27;;;31.50;55.60;;;;;;4997058;28;20207;-92
2022/07/17 12:14:29;;;;;;;1.48;1.38;;;31.60;57.40;;;;;;4979469;28;20190;-92
2022/07/17 12:17:04;;;;;;;1.35;1.25;;;31.90;57.50;;;;;;4996974;28;20210;-92
2022/07/17 12:19:29;;;;;;;1.35;1.25;;;32.10;57.30;;;;;;4996654;28;20167;-92
2022/07/17 12:22:04;;;;;;;2.38;1.25;;;31.50;54.70;;;;;;4977687;28;20281;-92
2022/07/17 12:24:32;;;;;;;1.35;1.20;;;31.20;53.50;;;;;;4980175;28;20209;-92
2022/07/17 12:27:00;;;;;;;1.35;1.20;;;31.50;54.30;;;;;;4979650;28;20180;-92
2022/07/17 12:29:28;;;;;;;1.73;1.25;;;31.40;56.90;;;;;;4980564;28;20187;-92
2022/07/17 12:32:10;;;;;;;1.58;1.02;;;31.40;55.10;;;;;;4986852;28;20204;-92
2022/07/17 12:34:45;;;;;;;1.38;1.27;;;31.30;52.00;;;;;;4995046;28;20179;-92
2022/07/17 12:37:14;;;;;;;1.40;1.27;;;31.50;54.00;;;;;;4996299;28;20209;-92
2022/07/17 12:39:40;;;;;;;1.35;1.25;;;31.60;55.60;;;;;;4996108;28;20241;-92
2022/07/17 12:42:07;;;;;;;1.38;1.20;;;31.60;54.40;;;;;;4994132;28;20257;-92
2022/07/17 12:44:34;;;;;;;1.02;1.02;;;31.60;53.20;;;;;;4997992;28;20176;-92
2022/07/17 12:47:00;;;;;;;1.38;1.27;;;31.90;55.30;;;;;;5001141;28;20237;-92
2022/07/17 12:49:25;;;;;;;1.58;1.48;;;32.00;53.80;;;;;;5003765;28;20259;-93
2022/07/17 12:51:51;;;;;;;1.50;1.40;;;32.10;56.50;;;;;;4996718;28;20205;-92